»·PEaware :: N14677 L88-KSBP

N14677 :: L88-KSBP

FLIGHT INFORMATION

Flight Status: Arrived
Operator: Privately registered:
United States
More flights under this callsign
Pilot: David F. (21030)
Aircraft: BEECH AIRCRAFT SUPER KING AIR COMMUTER
(BE20)
More flights by this aircraft type
Origin: L88 New Cuyama
United States
Destination: KSBP San Luis Co Regl
United States
More flights between these airports :: More routes between these airports
Route: DIRECT KSBP
File this flight plan on PilotEdge
Remarks:
Altitude:
(Current/Filed)
8,500ft
Speed:
(Current/Filed)
220kts
Departed: 09-Nov-18 10:17 AM
Arrived: 09-Nov-18 10:48 AM
Distance/Time
Traveled:
50nm/0:31
Distance/Time
To Go:
Arrived

Flight Plot

Page will automatically refresh every two minutes.

Flight plan parsing failed; only flown route is shown


Map Options




Map Legend


Flown Route
Filed Route
Departure Airport
Arrival Airport
Navaid (VOR, NDB)
Fix

Horizontal Profiles

Position Reports

Time Latitude Longitude Heading Altitude Ground
Speed
09-Nov-18 07:51 35.238295 -120.639207 98 215ft 0kts
09-Nov-18 07:52 35.238288 -120.639153 100 215ft 0kts
09-Nov-18 07:53 35.238280 -120.639098 101 215ft 0kts
09-Nov-18 07:54 35.238271 -120.639045 102 215ft 0kts
09-Nov-18 07:55 35.238260 -120.638991 104 215ft 0kts
09-Nov-18 07:56 35.238249 -120.638938 105 215ft 0kts
09-Nov-18 07:57 35.238237 -120.638886 106 215ft 0kts
09-Nov-18 07:58 35.238224 -120.638835 108 215ft 0kts
09-Nov-18 07:59 35.238210 -120.638784 109 215ft 0kts
09-Nov-18 08:00 35.238195 -120.638735 110 215ft 0kts
09-Nov-18 08:01 35.238180 -120.638686 112 215ft 0kts
09-Nov-18 08:02 35.238163 -120.638637 113 215ft 0kts
09-Nov-18 08:03 35.238145 -120.638588 114 215ft 0kts
09-Nov-18 08:04 35.238126 -120.638540 116 215ft 0kts
09-Nov-18 08:05 35.238107 -120.638492 117 215ft 0kts
09-Nov-18 08:06 35.238086 -120.638444 118 215ft 0kts
09-Nov-18 08:07 35.238065 -120.638398 120 215ft 0kts
09-Nov-18 08:08 35.238043 -120.638351 121 215ft 0kts
09-Nov-18 08:09 35.238019 -120.638306 122 215ft 0kts
09-Nov-18 08:10 35.237995 -120.638261 124 215ft 0kts
09-Nov-18 08:11 35.237970 -120.638216 125 215ft 0kts
09-Nov-18 08:12 35.237944 -120.638172 126 215ft 0kts
09-Nov-18 08:13 35.237917 -120.638129 128 215ft 0kts
09-Nov-18 08:14 35.237889 -120.638086 129 215ft 0kts
09-Nov-18 08:15 35.237861 -120.638044 130 215ft 0kts
09-Nov-18 08:16 35.237831 -120.638004 132 215ft 0kts
09-Nov-18 08:17 35.237802 -120.637964 133 215ft 0kts
09-Nov-18 08:18 35.237771 -120.637926 134 215ft 0kts
09-Nov-18 08:19 35.237739 -120.637888 136 215ft 0kts
09-Nov-18 08:20 35.237707 -120.637850 137 215ft 0kts
09-Nov-18 08:21 35.237672 -120.637812 139 215ft 0kts
09-Nov-18 08:22 35.237636 -120.637774 140 215ft 0kts
09-Nov-18 08:23 35.237599 -120.637737 141 215ft 0kts
09-Nov-18 08:24 35.237561 -120.637702 143 215ft 0kts
09-Nov-18 08:25 35.237523 -120.637668 144 215ft 0kts
09-Nov-18 08:26 35.237485 -120.637635 146 215ft 0kts
09-Nov-18 08:27 35.237445 -120.637604 147 215ft 0kts
09-Nov-18 08:28 35.237405 -120.637574 149 215ft 0kts
09-Nov-18 08:29 35.237365 -120.637544 150 215ft 0kts
09-Nov-18 08:30 35.237323 -120.637516 152 215ft 0kts
09-Nov-18 08:31 35.237280 -120.637489 153 215ft 0kts
09-Nov-18 08:32 35.237237 -120.637463 154 215ft 0kts
09-Nov-18 08:33 35.237192 -120.637438 156 215ft 0kts
09-Nov-18 08:34 35.237145 -120.637414 158 215ft 0kts
09-Nov-18 08:35 35.237133 -120.637408 158 215ft 0kts
09-Nov-18 08:36 35.237133 -120.637408 158 215ft 0kts
09-Nov-18 08:37 35.237133 -120.637408 158 215ft 0kts
09-Nov-18 08:38 35.237133 -120.637408 158 215ft 0kts
09-Nov-18 08:39 35.237133 -120.637408 158 215ft 0kts
09-Nov-18 08:40 35.237133 -120.637408 158 215ft 0kts
09-Nov-18 08:41 35.237133 -120.637408 158 215ft 0kts
09-Nov-18 08:42 35.237133 -120.637408 158 215ft 0kts
09-Nov-18 08:43 35.237133 -120.637408 158 215ft 0kts
09-Nov-18 08:44 35.237133 -120.637408 158 215ft 0kts
09-Nov-18 08:45 35.237133 -120.637408 158 215ft 0kts
09-Nov-18 08:46 35.237133 -120.637408 158 215ft 0kts
09-Nov-18 08:47 35.237133 -120.637408 158 215ft 0kts
09-Nov-18 08:48 35.237133 -120.637408 158 215ft 0kts
09-Nov-18 08:49 35.237133 -120.637408 158 215ft 0kts
09-Nov-18 08:50 35.237133 -120.637408 158 215ft 0kts
09-Nov-18 08:51 35.237133 -120.637408 158 215ft 0kts
09-Nov-18 08:52 35.237133 -120.637408 158 215ft 0kts
09-Nov-18 08:53 35.237133 -120.637408 158 215ft 0kts
09-Nov-18 08:54 35.237133 -120.637408 158 215ft 0kts
09-Nov-18 08:55 35.237133 -120.637408 158 215ft 0kts
09-Nov-18 08:56 35.237133 -120.637408 158 215ft 0kts
09-Nov-18 08:57 35.237133 -120.637408 158 215ft 0kts
09-Nov-18 08:58 35.237133 -120.637408 158 215ft 0kts
09-Nov-18 08:59 35.237133 -120.637408 158 215ft 0kts
09-Nov-18 09:00 35.237133 -120.637408 158 215ft 0kts
09-Nov-18 09:01 35.237133 -120.637408 158 215ft 0kts
09-Nov-18 09:02 35.237133 -120.637408 158 215ft 0kts
09-Nov-18 09:03 35.237133 -120.637408 158 215ft 0kts
09-Nov-18 09:04 35.237133 -120.637408 158 215ft 0kts
09-Nov-18 09:05 35.237133 -120.637408 158 215ft 0kts
09-Nov-18 09:06 35.237133 -120.637408 158 215ft 0kts
09-Nov-18 09:07 35.237133 -120.637408 158 215ft 0kts
09-Nov-18 09:08 35.237133 -120.637408 158 215ft 0kts
09-Nov-18 09:09 35.237133 -120.637408 158 215ft 0kts
09-Nov-18 09:10 35.237133 -120.637408 158 215ft 0kts
09-Nov-18 09:11 35.237133 -120.637408 158 215ft 0kts
09-Nov-18 09:12 35.237133 -120.637408 158 215ft 0kts
09-Nov-18 09:13 35.237133 -120.637408 158 215ft 0kts
09-Nov-18 09:14 35.237133 -120.637408 158 215ft 0kts
09-Nov-18 09:15 35.237133 -120.637408 158 215ft 0kts
09-Nov-18 09:16 35.237133 -120.637408 158 215ft 0kts
09-Nov-18 09:17 35.237133 -120.637408 158 215ft 0kts
09-Nov-18 09:18 35.237133 -120.637408 158 215ft 0kts
09-Nov-18 09:19 35.237133 -120.637408 158 215ft 0kts
09-Nov-18 09:20 35.237133 -120.637408 158 215ft 0kts
09-Nov-18 09:21 35.237133 -120.637408 158 215ft 0kts
09-Nov-18 09:22 35.237133 -120.637408 158 215ft 0kts
09-Nov-18 09:23 35.237133 -120.637408 158 215ft 0kts
09-Nov-18 09:24 35.237133 -120.637408 158 215ft 0kts
09-Nov-18 09:25 35.237133 -120.637408 158 215ft 0kts
09-Nov-18 09:26 35.237133 -120.637408 158 215ft 0kts
09-Nov-18 09:27 35.237133 -120.637408 158 215ft 0kts
09-Nov-18 09:28 35.237133 -120.637408 158 215ft 0kts
09-Nov-18 09:29 35.237133 -120.637408 158 215ft 0kts
09-Nov-18 09:30 35.237133 -120.637408 158 215ft 0kts
09-Nov-18 09:31 35.237133 -120.637408 158 215ft 0kts
09-Nov-18 09:32 35.237133 -120.637408 158 215ft 0kts
09-Nov-18 09:33 35.237133 -120.637408 158 215ft 0kts
09-Nov-18 09:34 35.237133 -120.637408 158 215ft 0kts
09-Nov-18 09:35 35.237133 -120.637408 158 215ft 0kts
09-Nov-18 09:36 35.237133 -120.637408 158 215ft 0kts
09-Nov-18 09:37 35.237133 -120.637408 158 215ft 0kts
09-Nov-18 09:38 35.237133 -120.637408 158 215ft 0kts
09-Nov-18 09:39 35.237133 -120.637408 158 215ft 0kts
09-Nov-18 09:40 35.237133 -120.637408 158 215ft 0kts
09-Nov-18 09:41 35.237133 -120.637408 158 215ft 0kts
09-Nov-18 09:42 35.237133 -120.637408 158 215ft 0kts
09-Nov-18 09:43 35.237133 -120.637408 158 215ft 0kts
09-Nov-18 09:44 35.237133 -120.637408 158 215ft 0kts
09-Nov-18 09:45 35.237133 -120.637408 158 215ft 0kts
09-Nov-18 09:46 35.237133 -120.637408 158 215ft 0kts
09-Nov-18 09:47 35.237133 -120.637408 158 215ft 0kts
09-Nov-18 09:48 35.237133 -120.637408 158 215ft 0kts
09-Nov-18 09:49 35.237133 -120.637408 158 215ft 0kts
09-Nov-18 09:50 35.237133 -120.637408 158 215ft 0kts
09-Nov-18 09:51 35.237133 -120.637408 158 215ft 0kts
09-Nov-18 09:52 35.237133 -120.637408 158 215ft 0kts
09-Nov-18 09:53 35.237133 -120.637408 158 215ft 0kts
09-Nov-18 09:54 35.237133 -120.637408 158 215ft 0kts
09-Nov-18 09:55 35.237133 -120.637408 158 215ft 0kts
09-Nov-18 09:56 35.237133 -120.637408 158 215ft 0kts
09-Nov-18 09:57 35.237133 -120.637408 158 215ft 0kts
09-Nov-18 09:58 35.237133 -120.637408 158 215ft 0kts
09-Nov-18 09:59 35.237133 -120.637408 158 215ft 0kts
09-Nov-18 10:00 35.237133 -120.637408 158 215ft 0kts
09-Nov-18 10:01 35.237133 -120.637408 158 215ft 0kts
09-Nov-18 10:02 35.237133 -120.637408 158 215ft 0kts
09-Nov-18 10:03 35.237133 -120.637408 158 215ft 0kts
09-Nov-18 10:04 35.237133 -120.637408 158 215ft 0kts
09-Nov-18 10:05 35.237133 -120.637408 158 215ft 0kts
09-Nov-18 10:06 35.237133 -120.637408 158 215ft 0kts
09-Nov-18 10:07 35.237133 -120.637408 158 215ft 0kts
09-Nov-18 10:08 35.237133 -120.637408 158 215ft 0kts
09-Nov-18 10:09 35.237133 -120.637408 158 215ft 0kts
09-Nov-18 10:10 34.942878 -119.690273 204 2207ft 0kts
09-Nov-18 10:11 34.942878 -119.690273 204 2207ft 0kts
09-Nov-18 10:12 34.942878 -119.690273 204 2207ft 0kts
09-Nov-18 10:13 34.942878 -119.690273 204 2207ft 0kts
09-Nov-18 10:14 34.942878 -119.690273 204 2207ft 0kts
09-Nov-18 10:15 34.942878 -119.690273 204 2207ft 0kts
09-Nov-18 10:16 34.942878 -119.690273 204 2207ft 0kts
09-Nov-18 10:17 34.942878 -119.690273 204 2207ft 0kts
09-Nov-18 10:18 34.942829 -119.690359 262 2207ft 1kts
09-Nov-18 10:19 34.942134 -119.690930 119 2207ft 0kts
09-Nov-18 10:20 34.940267 -119.686369 115 2207ft 105kts
09-Nov-18 10:21 34.935049 -119.659780 40 3591ft 142kts
09-Nov-18 10:22 34.951818 -119.680124 269 4844ft 180kts
09-Nov-18 10:23 34.954720 -119.715804 274 6329ft 178kts
09-Nov-18 10:24 34.961036 -119.749923 287 7373ft 187kts
09-Nov-18 10:25 34.970268 -119.781853 290 8321ft 190kts
09-Nov-18 10:26 34.980488 -119.814716 290 8566ft 217kts
09-Nov-18 10:27 34.992868 -119.854254 291 8564ft 236kts
09-Nov-18 10:28 35.005962 -119.896238 290 8561ft 243kts
09-Nov-18 10:29 35.019594 -119.939722 290 8560ft 245kts
09-Nov-18 10:30 35.033522 -119.983828 291 8559ft 246kts
09-Nov-18 10:31 35.047736 -120.029272 291 8559ft 246kts
09-Nov-18 10:32 35.061829 -120.074586 291 8559ft 246kts
09-Nov-18 10:33 35.075778 -120.119239 291 8559ft 246kts
09-Nov-18 10:34 35.091098 -120.168507 291 8559ft 246kts
09-Nov-18 10:35 35.104936 -120.212856 291 8559ft 246kts
09-Nov-18 10:36 35.118294 -120.255858 291 8559ft 246kts
09-Nov-18 10:37 35.131435 -120.298291 291 8559ft 246kts
09-Nov-18 10:38 35.144646 -120.341020 290 8066ft 259kts
09-Nov-18 10:39 35.157951 -120.384850 288 7041ft 265kts
09-Nov-18 10:40 35.171139 -120.427453 291 6559ft 242kts
09-Nov-18 10:41 35.182999 -120.465937 291 6345ft 212kts
09-Nov-18 10:42 35.193661 -120.500678 291 5525ft 211kts
09-Nov-18 10:43 35.205593 -120.534613 296 4602ft 215kts
09-Nov-18 10:44 35.217850 -120.567655 311 4182ft 170kts
09-Nov-18 10:45 35.232938 -120.585425 309 3620ft 131kts
09-Nov-18 10:46 35.246491 -120.602889 306 3102ft 117kts
09-Nov-18 10:47 35.261897 -120.625023 318 3241ft 144kts
09-Nov-18 10:48 35.275437 -120.644537 273 2442ft 132kts
09-Nov-18 10:49 35.263790 -120.661032 175 1306ft 123kts
09-Nov-18 10:50 35.244957 -120.654314 123 423ft 130kts
09-Nov-18 10:51 35.237615 -120.639574 123 215ft 33kts
09-Nov-18 10:52 35.237721 -120.637089 312 215ft 0kts
09-Nov-18 10:53 35.237721 -120.637089 312 215ft 0kts
09-Nov-18 10:58 35.237404 -120.645831 267 215ft 0kts

Navigation Log

Ident Type
Flight plan parsing failed, navigation log unavailable